Time;durP1;ratioP1;P1;durP2;ratioP2;P2;SDS_P1;SDS_P2;PMS_P1;PMS_P2;Temp;Humidity;BMP_temperature;BMP_pressure;BME280_temperature;BME280_humidity;BME280_pressure;Samples;Min_cycle;Max_cycle;Signal;HPM_P1;HPM_P2
2022/06/23 00:02:36;;;;;;;16.20;12.15;;;;;;;20.78;49.93;98445.69;6241491;23;20048;-95
2022/06/23 00:05:11;;;;;;;16.00;13.05;;;;;;;21.00;50.29;98462.03;6252161;22;20020;-92
2022/06/23 00:07:43;;;;;;;18.02;13.05;;;;;;;20.82;50.64;98431.84;6253032;22;20079;-92
2022/06/23 00:10:18;;;;;;;18.27;13.32;;;;;;;20.84;50.38;98445.22;6252378;22;20075;-90
2022/06/23 00:13:12;;;;;;;17.50;13.02;;;;;;;20.84;49.86;98450.63;6253992;22;20020;-90
2022/06/23 00:15:45;;;;;;;23.52;13.73;;;;;;;20.85;50.31;98458.63;6252877;22;20020;-92
2022/06/23 00:18:22;;;;;;;19.08;14.00;;;;;;;20.79;50.17;98453.66;6253212;22;20016;-91
2022/06/23 00:20:55;;;;;;;15.80;12.93;;;;;;;20.66;49.74;98437.50;6252609;22;20102;-90
2022/06/23 00:23:37;;;;;;;18.38;12.38;;;;;;;20.69;50.03;98458.06;6253199;22;20024;-94
2022/06/23 00:26:17;;;;;;;19.58;13.50;;;;;;;20.69;49.83;98458.06;6253522;22;20016;-94
2022/06/23 00:28:53;;;;;;;20.77;13.88;;;;;;;20.59;50.06;98447.03;6253204;22;20020;-92
2022/06/23 00:31:29;;;;;;;17.50;13.52;;;;;;;20.63;50.40;98464.75;6252619;22;20017;-92
2022/06/23 00:33:59;;;;;;;30.63;13.80;;;;;;;20.75;50.12;98489.16;6254669;22;20144;-93
2022/06/23 00:36:36;;;;;;;16.58;12.52;;;;;;;20.59;51.20;98476.75;6253793;22;20038;-93
2022/06/23 00:39:20;;;;;;;17.92;13.43;;;;;;;20.55;51.57;98487.88;6253099;22;20016;-94
2022/06/23 00:41:58;;;;;;;16.35;13.80;;;;;;;20.43;53.09;98470.72;6252643;22;20012;-94
2022/06/23 00:44:33;;;;;;;17.52;12.80;;;;;;;20.39;52.16;98475.47;6252649;22;20020;-94
2022/06/23 00:47:22;;;;;;;17.48;13.48;;;;;;;20.58;52.07;98506.56;6253043;22;20436;-93
2022/06/23 00:50:04;;;;;;;19.02;14.00;;;;;;;20.38;52.89;98467.47;6252752;22;20023;-94
2022/06/23 00:52:47;;;;;;;18.55;13.57;;;;;;;20.32;53.27;98471.50;6253106;22;20020;-93
2022/06/23 00:55:25;;;;;;;17.35;13.55;;;;;;;20.34;52.97;98490.28;6256350;22;20023;-93
2022/06/23 00:58:03;;;;;;;17.60;13.65;;;;;;;20.24;53.45;98480.13;6254480;22;20047;-91
2022/06/23 01:00:34;;;;;;;17.88;13.93;;;;;;;20.15;53.59;98491.59;6252777;22;20450;-90
2022/06/23 01:03:12;;;;;;;19.15;13.68;;;;;;;20.19;53.74;98490.41;6252881;22;20016;-93
2022/06/23 01:05:59;;;;;;;18.98;12.88;;;;;;;20.23;53.29;98482.94;6254218;22;20023;-92
2022/06/23 01:08:33;;;;;;;16.45;13.25;;;;;;;20.25;52.72;98487.25;6254785;22;20024;-95
2022/06/23 01:11:08;;;;;;;16.83;12.85;;;;;;;20.18;53.40;98496.75;6253453;22;20013;-93
2022/06/23 01:13:50;;;;;;;20.02;12.95;;;;;;;20.00;53.74;98489.97;6252732;22;20020;-94
2022/06/23 01:16:23;;;;;;;22.45;13.32;;;;;;;20.17;54.13;98516.66;6251907;22;20020;-91
2022/06/23 01:19:23;;;;;;;17.92;14.57;;;;;;;20.13;54.75;98515.13;6253397;22;20055;-93
2022/06/23 01:22:19;;;;;;;19.70;13.77;;;;;;;19.96;55.17;98488.47;6252777;22;20072;-93
2022/06/23 01:25:02;;;;;;;17.02;13.63;;;;;;;20.07;55.86;98511.00;6252064;22;20099;-91
2022/06/23 01:27:59;;;;;;;17.08;13.48;;;;;;;20.04;55.02;98494.19;6252345;22;20023;-93
2022/06/23 01:30:29;;;;;;;;;;;;;;;20.25;54.92;98526.88;6251723;22;20016;-92
2022/06/23 01:33:04;;;;;;;19.58;14.45;;;;;;;20.07;56.56;98500.22;6250840;23;19911;-95
2022/06/23 01:35:44;;;;;;;19.55;13.93;;;;;;;20.01;55.56;98484.44;6250268;22;20035;-92
2022/06/23 01:38:18;;;;;;;17.30;14.57;;;;;;;20.03;56.53;98482.50;6250600;22;20023;-93
2022/06/23 01:40:51;;;;;;;18.80;14.35;;;;;;;20.12;56.72;98502.59;6250545;22;20039;-94
2022/06/23 01:43:32;;;;;;;21.33;14.90;;;;;;;20.23;57.15;98521.63;6250628;22;20074;-92
2022/06/23 01:46:19;;;;;;;20.02;14.13;;;;;;;20.07;57.25;98502.91;6252304;22;20027;-92
2022/06/23 01:48:53;;;;;;;17.60;14.40;;;;;;;20.14;56.62;98511.44;6253437;22;20016;-91
2022/06/23 01:51:26;;;;;;;22.30;14.18;;;;;;;20.12;55.81;98497.19;6252917;22;20016;-93
2022/06/23 01:54:09;;;;;;;18.10;14.00;;;;;;;20.20;56.04;98497.53;6252606;22;20103;-95
2022/06/23 01:57:01;;;;;;;18.20;13.43;;;;;;;20.13;55.89;98504.34;6252998;22;20102;-92
2022/06/23 02:00:04;;;;;;;;;;;;;;;;;;;;;
2022/06/23 02:02:45;;;;;;;18.63;13.85;;;;;;;20.22;54.76;98522.56;6253177;23;20768;-93
2022/06/23 02:06:30;;;;;;;;;;;;;;;;;;;;;
2022/06/23 02:17:11;;;;;;;18.98;13.10;;;;;;;20.19;54.67;98548.91;6188894;23;20016;-93
2022/06/23 02:19:56;;;;;;;17.10;12.90;;;;;;;19.86;53.90;98505.31;6253205;23;20020;-91
2022/06/23 02:22:27;;;;;;;16.30;12.80;;;;;;;19.74;53.96;98500.75;6253300;22;20346;-91
2022/06/23 02:25:04;;;;;;;16.85;12.82;;;;;;;19.64;53.94;98503.16;6252746;22;20070;-93
2022/06/23 02:27:37;;;;;;;18.02;12.27;;;;;;;19.49;54.88;98502.38;6252541;22;20438;-92
2022/06/23 02:30:10;;;;;;;19.27;12.90;;;;;;;19.50;56.69;98505.97;6252005;22;20442;-92
2022/06/23 02:32:53;;;;;;;17.90;13.32;;;;;;;19.38;56.88;98510.31;6251635;22;20042;-94
2022/06/23 02:35:29;;;;;;;17.30;13.23;;;;;;;19.25;56.41;98512.97;6253567;22;20020;-93
2022/06/23 02:38:03;;;;;;;16.90;12.95;;;;;;;19.22;55.81;98509.63;6253551;22;20027;-91
2022/06/23 02:40:38;;;;;;;16.70;13.43;;;;;;;19.14;57.13;98514.66;6253532;22;20061;-92
2022/06/23 02:43:31;;;;;;;16.67;12.77;;;;;;;19.10;56.69;98524.78;6252379;22;20020;-92
2022/06/23 02:46:38;;;;;;;19.67;13.35;;;;;;;19.11;57.42;98521.13;6253370;22;20016;-91
2022/06/23 02:49:51;;;;;;;17.73;12.70;;;;;;;19.13;57.50;98543.47;6246171;23;20091;-93
2022/06/23 02:52:58;;;;;;;15.73;11.90;;;;;;;18.87;56.45;98523.59;6253924;22;20019;-93
2022/06/23 02:55:53;;;;;;;15.55;11.98;;;;;;;18.80;57.46;98516.88;6253891;22;20028;-92
2022/06/23 02:58:39;;;;;;;16.92;12.48;;;;;;;18.97;57.02;98548.13;6242551;22;20062;-92
2022/06/23 03:01:19;;;;;;;18.80;12.35;;;;;;;18.76;57.68;98521.56;6254464;22;20032;-92
2022/06/23 03:03:51;;;;;;;17.20;12.18;;;;;;;18.66;57.91;98518.59;6255300;22;20023;-91
2022/06/23 03:06:35;;;;;;;18.67;13.73;;;;;;;18.73;58.05;98539.75;6254779;22;20024;-93
2022/06/23 03:09:10;;;;;;;18.23;12.75;;;;;;;18.77;58.08;98538.59;6255642;22;20024;-91
2022/06/23 03:11:56;;;;;;;17.98;13.32;;;;;;;18.86;58.02;98543.41;6254366;22;20435;-94
2022/06/23 03:14:36;;;;;;;19.08;14.07;;;;;;;18.81;58.94;98545.56;6253298;22;20047;-90
2022/06/23 03:17:19;;;;;;;18.13;14.07;;;;;;;18.68;59.44;98522.06;6253253;22;20019;-93
2022/06/23 03:19:57;;;;;;;19.48;14.00;;;;;;;18.73;59.22;98523.59;6253290;22;20016;-93
2022/06/23 03:22:36;;;;;;;17.60;13.95;;;;;;;18.71;59.54;98528.22;6253493;22;20420;-92
2022/06/23 03:25:12;;;;;;;19.15;13.93;;;;;;;18.71;60.20;98536.28;6254196;22;20016;-92
2022/06/23 03:27:52;;;;;;;19.15;14.40;;;;;;;18.58;59.63;98520.03;6254500;22;20022;-92
2022/06/23 03:30:25;;;;;;;18.75;14.40;;;;;;;18.74;60.11;98552.28;6254476;22;20016;-90
2022/06/23 03:32:55;;;;;;;18.80;13.48;;;;;;;18.74;60.70;98560.34;6254944;22;20020;-92
2022/06/23 03:35:32;;;;;;;19.65;14.95;;;;;;;18.48;60.27;98512.56;6254267;22;20020;-93
2022/06/23 03:38:12;;;;;;;18.73;13.98;;;;;;;18.71;59.19;98539.84;6255398;22;20020;-90
2022/06/23 03:44:26;;;;;;;21.88;13.85;;;;;;;18.62;59.59;98527.81;5112769;27;1550904;-91
2022/06/23 03:46:56;;;;;;;18.85;14.63;;;;;;;18.79;59.42;98547.47;5148917;27;20142;-93
2022/06/23 03:49:48;;;;;;;17.10;13.13;;;;;;;18.54;59.81;98513.13;5155148;27;20047;-92
2022/06/23 03:52:23;;;;;;;17.52;13.27;;;;;;;18.62;58.73;98524.28;5132291;27;20508;-92
2022/06/23 03:55:17;;;;;;;15.93;12.75;;;;;;;18.57;57.80;98515.63;5142305;27;20047;-93
2022/06/23 03:57:55;;;;;;;16.15;12.73;;;;;;;18.63;58.04;98516.09;5143016;27;20091;-92
2022/06/23 04:00:35;;;;;;;18.77;13.00;;;;;;;18.73;57.91;98532.53;5150778;27;20046;-92
2022/06/23 04:03:13;;;;;;;18.35;13.27;;;;;;;18.79;58.95;98542.09;5140491;27;20039;-92
2022/06/23 04:05:54;;;;;;;;;;;;;;;19.04;57.61;98560.22;5153837;27;20039;-91
2022/06/23 04:08:21;;;;;;;17.58;12.43;;;;;;;19.11;57.85;98553.47;5094551;28;19926;-94
2022/06/23 04:10:49;;;;;;;17.38;13.00;;;;;;;18.90;57.69;98517.16;5148140;27;20046;-92
2022/06/23 04:13:22;;;;;;;17.80;13.73;;;;;;;18.95;58.45;98529.34;5142654;27;20102;-92
2022/06/23 04:16:10;;;;;;;18.55;13.38;;;;;;;18.99;58.45;98522.78;5137974;27;20043;-93
2022/06/23 04:18:46;;;;;;;21.52;14.27;;;;;;;19.12;58.84;98528.25;5147054;27;20034;-92
2022/06/23 04:21:17;;;;;;;17.85;14.65;;;;;;;19.36;59.46;98551.84;5152198;27;20071;-94
2022/06/23 04:23:49;;;;;;;21.77;15.05;;;;;;;19.46;59.89;98544.88;5156061;27;20070;-93
2022/06/23 04:26:25;;;;;;;18.55;14.23;;;;;;;19.52;59.38;98532.81;5143113;27;20058;-93
2022/06/23 04:29:00;;;;;;;17.75;13.98;;;;;;;19.52;59.17;98514.81;5141325;27;20092;-93
2022/06/23 04:31:40;;;;;;;19.67;14.70;;;;;;;19.74;59.83;98567.34;5148330;27;20056;-93
2022/06/23 04:34:19;;;;;;;19.02;14.60;;;;;;;19.58;60.32;98537.78;5141545;27;20438;-93
2022/06/23 04:36:48;;;;;;;17.70;13.88;;;;;;;19.68;60.53;98557.78;5150399;27;20432;-93
2022/06/23 04:39:26;;;;;;;18.02;14.40;;;;;;;19.63;60.03;98530.25;5146720;27;20047;-93
2022/06/23 04:42:00;;;;;;;18.27;13.27;;;;;;;19.66;60.54;98527.34;5143795;27;20055;-93
2022/06/23 04:44:59;;;;;;;;;;;;;;;;;;;;;
2022/06/23 04:47:43;;;;;;;18.15;13.57;;;;;;;19.71;60.42;98525.22;5148246;27;20039;-94
2022/06/23 04:50:30;;;;;;;22.98;13.82;;;;;;;20.04;60.29;98570.63;5151365;27;20376;-92
2022/06/23 04:53:19;;;;;;;18.17;14.35;;;;;;;20.20;60.55;98535.31;5138865;27;20031;-93
2022/06/23 04:56:05;;;;;;;20.67;14.38;;;;;;;20.65;59.62;98548.41;5136330;27;20047;-93
2022/06/23 04:58:41;;;;;;;18.67;15.18;;;;;;;21.06;59.32;98542.69;5129628;27;20135;-93
2022/06/23 05:01:12;;;;;;;19.33;14.77;;;;;;;21.52;57.37;98541.97;5130161;27;20047;-93
2022/06/23 05:03:44;;;;;;;21.48;15.23;;;;;;;21.84;54.49;98532.38;5125518;27;20119;-93
2022/06/23 05:06:19;;;;;;;19.10;14.20;;;;;;;22.07;53.62;98546.84;5126206;27;20555;-92
2022/06/23 05:08:47;;;;;;;20.60;13.70;;;;;;;21.88;52.72;98529.31;5128779;27;20098;-91
2022/06/23 05:11:18;;;;;;;17.70;13.97;;;;;;;22.07;51.95;98538.72;5130326;27;20063;-95
2022/06/23 05:13:48;;;;;;;15.70;13.43;;;;;;;21.58;52.70;98545.19;5134490;27;20063;-91
2022/06/23 05:16:23;;;;;;;17.10;12.85;;;;;;;21.67;52.31;98558.03;5128403;27;20511;-92
2022/06/23 05:18:53;;;;;;;18.63;12.90;;;;;;;22.08;50.87;98559.41;5128164;27;20038;-92
2022/06/23 05:21:25;;;;;;;16.80;13.13;;;;;;;21.92;50.71;98557.91;5132157;27;20035;-92
2022/06/23 05:23:59;;;;;;;17.10;13.63;;;;;;;21.59;50.52;98538.81;5130356;27;20039;-95
2022/06/23 05:26:40;;;;;;;15.75;12.57;;;;;;;21.90;50.26;98549.03;5125984;27;20047;-94
2022/06/23 05:29:17;;;;;;;17.38;13.18;;;;;;;22.33;49.96;98556.50;5127264;27;20067;-92
2022/06/23 05:31:46;;;;;;;17.85;13.35;;;;;;;22.81;47.96;98543.72;5137692;27;20423;-91
2022/06/23 05:34:19;;;;;;;17.95;12.52;;;;;;;23.13;48.03;98560.97;5136317;27;20036;-94
2022/06/23 05:36:55;;;;;;;16.38;13.23;;;;;;;23.36;47.89;98542.81;5134016;27;20035;-93
2022/06/23 05:39:30;;;;;;;19.88;12.95;;;;;;;23.75;47.45;98551.34;5130382;27;20616;-92
2022/06/23 05:42:01;;;;;;;19.70;13.68;;;;;;;24.06;46.57;98567.72;5127166;27;20052;-93
2022/06/23 05:44:34;;;;;;;19.23;13.50;;;;;;;24.29;45.81;98553.97;5136244;27;20039;-95
2022/06/23 05:47:03;;;;;;;18.20;13.43;;;;;;;24.28;44.96;98558.56;5143953;27;20495;-94
2022/06/23 05:49:55;;;;;;;16.23;11.98;;;;;;;24.25;43.65;98547.13;5131092;27;20160;-96
2022/06/23 05:52:36;;;;;;;17.92;12.57;;;;;;;23.70;45.89;98558.97;5135760;27;20046;-95
2022/06/23 05:55:06;;;;;;;16.00;12.93;;;;;;;23.77;44.45;98570.22;5126663;27;20073;-92
2022/06/23 05:57:40;;;;;;;15.75;12.43;;;;;;;23.75;45.19;98556.75;5137110;27;20035;-93
2022/06/23 06:00:21;;;;;;;20.15;13.00;;;;;;;23.58;46.51;98577.16;5133574;27;20043;-94
2022/06/23 06:02:54;;;;;;;16.15;12.57;;;;;;;23.65;46.36;98550.34;5134677;27;20039;-94
2022/06/23 06:05:31;;;;;;;17.52;12.90;;;;;;;23.86;46.74;98576.72;5129730;27;20100;-92
2022/06/23 06:08:12;;;;;;;16.70;12.50;;;;;;;23.64;46.38;98556.78;5125806;27;20044;-92
2022/06/23 06:10:55;;;;;;;20.05;13.15;;;;;;;23.50;47.58;98552.50;5136574;27;20042;-93
2022/06/23 06:13:37;;;;;;;15.18;12.60;;;;;;;23.81;46.88;98577.09;5134517;27;20027;-92
2022/06/23 06:16:52;;;;;;;15.82;12.48;;;;;;;23.72;45.48;98565.13;5134008;27;20044;-93
2022/06/23 06:19:21;;;;;;;16.23;12.45;;;;;;;24.09;43.15;98556.56;5127907;27;20046;-93
2022/06/23 06:21:54;;;;;;;17.77;11.88;;;;;;;24.66;43.03;98562.53;5135565;27;20039;-96
2022/06/23 06:24:27;;;;;;;16.10;11.57;;;;;;;24.88;42.48;98594.13;5129318;27;20055;-90
2022/06/23 06:26:56;;;;;;;15.85;12.35;;;;;;;24.73;41.98;98573.75;5133771;27;20069;-92
2022/06/23 06:29:24;;;;;;;14.02;11.25;;;;;;;24.85;40.52;98560.88;5129946;27;20080;-94
2022/06/23 06:31:55;;;;;;;14.35;11.32;;;;;;;25.26;41.21;98554.47;5128896;27;20044;-95
2022/06/23 06:34:30;;;;;;;12.85;11.45;;;;;;;25.14;40.61;98569.16;5128309;27;20036;-95
2022/06/23 06:37:00;;;;;;;14.15;11.10;;;;;;;25.34;39.84;98559.22;5117933;27;20508;-93
2022/06/23 06:39:29;;;;;;;13.25;11.15;;;;;;;25.63;38.77;98553.78;5115641;28;20054;-94
2022/06/23 06:42:05;;;;;;;13.35;10.95;;;;;;;25.92;39.55;98581.09;5117828;27;20116;-92
2022/06/23 06:44:43;;;;;;;14.82;11.77;;;;;;;25.46;40.12;98558.09;5125821;27;20122;-92
2022/06/23 06:47:17;;;;;;;12.85;10.82;;;;;;;25.39;40.60;98559.66;5122389;27;20051;-92
2022/06/23 06:49:43;;;;;;;11.95;10.60;;;;;;;25.79;40.65;98575.03;5124686;27;20038;-92
2022/06/23 06:52:27;;;;;;;12.95;11.15;;;;;;;25.89;40.19;98556.84;5123802;27;20069;-92
2022/06/23 06:55:02;;;;;;;15.10;10.20;;;;;;;26.26;38.79;98567.00;5118288;27;20127;-92
2022/06/23 06:57:42;;;;;;;15.53;10.50;;;;;;;26.22;39.34;98558.25;5117315;27;20043;-92
2022/06/23 07:00:14;;;;;;;13.93;11.00;;;;;;;26.00;40.61;98558.56;5131429;27;20787;-92
2022/06/23 07:03:02;;;;;;;12.52;11.23;;;;;;;25.77;41.15;98568.88;5129605;27;20525;-94
2022/06/23 07:05:33;;;;;;;14.80;10.57;;;;;;;25.52;41.58;98568.41;5132496;27;20372;-93
2022/06/23 07:08:10;;;;;;;12.38;10.98;;;;;;;25.88;42.06;98595.13;5131419;27;20042;-92
2022/06/23 07:10:56;;;;;;;;;;;;;;;;;;;;;
2022/06/23 07:13:35;;;;;;;12.10;10.43;;;;;;;25.55;41.08;98597.25;5122747;27;20039;-92
2022/06/23 07:16:17;;;;;;;12.25;10.18;;;;;;;25.84;41.18;98583.63;5122222;27;20048;-92
2022/06/23 07:18:53;;;;;;;12.35;10.30;;;;;;;26.36;40.41;98575.16;5114950;28;20457;-93
2022/06/23 07:21:24;;;;;;;10.82;9.25;;;;;;;26.85;38.87;98589.56;5125743;27;20051;-92
2022/06/23 07:23:57;;;;;;;12.23;10.20;;;;;;;27.06;38.37;98572.94;5130781;27;20043;-92
2022/06/23 07:26:34;;;;;;;9.57;8.57;;;;;;;26.98;37.56;98587.34;5134529;27;20130;-93
2022/06/23 07:29:12;;;;;;;11.70;8.15;;;;;;;26.83;38.66;98602.50;5123513;27;20412;-93
2022/06/23 07:31:47;;;;;;;12.77;8.65;;;;;;;27.10;38.53;98578.97;5135196;27;20051;-94
2022/06/23 07:34:15;;;;;;;10.10;7.78;;;;;;;27.29;37.15;98569.84;5135396;27;20039;-92
2022/06/23 07:36:47;;;;;;;10.35;7.93;;;;;;;27.27;37.19;98596.44;5128606;27;20043;-93
2022/06/23 07:39:18;;;;;;;11.43;8.15;;;;;;;26.99;37.63;98590.94;5126756;28;20047;-92
2022/06/23 07:41:52;;;;;;;9.65;8.20;;;;;;;27.24;37.71;98597.63;5120493;28;20048;-93
2022/06/23 07:44:24;;;;;;;12.80;8.40;;;;;;;27.31;37.57;98567.84;5130827;28;20043;-94
2022/06/23 07:46:52;;;;;;;12.98;8.63;;;;;;;27.65;36.93;98577.09;5123979;28;20058;-92
2022/06/23 07:49:18;;;;;;;11.10;8.25;;;;;;;27.77;36.97;98571.38;5129476;28;20501;-93
2022/06/23 07:51:46;;;;;;;10.57;8.75;;;;;;;28.02;36.34;98581.56;5126458;28;20381;-93
2022/06/23 07:54:21;;;;;;;12.55;9.80;;;;;;;27.62;36.57;98569.19;5123741;28;20058;-93
2022/06/23 07:56:49;;;;;;;13.73;9.30;;;;;;;28.02;36.71;98569.78;5118163;28;20093;-93
2022/06/23 07:59:19;;;;;;;9.60;8.33;;;;;;;28.36;35.88;98599.09;5124478;28;20439;-94
2022/06/23 08:01:53;;;;;;;12.43;9.25;;;;;;;27.84;36.89;98588.88;5114226;28;20086;-92
2022/06/23 08:04:31;;;;;;;9.75;8.75;;;;;;;27.68;37.65;98627.81;5114719;28;20043;-92
2022/06/23 08:07:03;;;;;;;14.00;9.55;;;;;;;27.80;37.80;98632.06;5121056;28;20050;-94
2022/06/23 08:09:42;;;;;;;10.13;8.93;;;;;;;27.85;37.61;98596.94;5115997;28;20500;-94
2022/06/23 08:18:37;;;;;;;12.13;9.57;;;;;;;27.76;37.47;98627.03;5113620;27;20373;-92
2022/06/23 08:21:15;;;;;;;11.18;9.43;;;;;;;27.58;38.18;98622.41;5112077;28;20130;-94
2022/06/23 08:23:48;;;;;;;14.82;9.32;;;;;;;27.50;38.53;98621.44;5112312;28;20040;-93
2022/06/23 08:26:26;;;;;;;10.52;8.70;;;;;;;27.68;37.22;98627.81;5111936;28;20032;-93
2022/06/23 08:28:57;;;;;;;13.77;8.55;;;;;;;28.22;36.74;98620.53;5108994;28;20059;-94
2022/06/23 08:31:34;;;;;;;15.25;8.60;;;;;;;28.78;35.92;98632.09;5113059;28;20105;-95
2022/06/23 08:34:31;;;;;;;12.18;8.40;;;;;;;29.17;35.80;98639.88;5112200;28;20508;-91
2022/06/23 08:37:15;;;;;;;13.63;9.00;;;;;;;29.03;35.05;98621.28;5115137;28;20124;-92
2022/06/23 08:39:55;;;;;;;14.77;8.55;;;;;;;28.68;36.12;98631.34;5114422;28;20135;-95
2022/06/23 08:42:39;;;;;;;15.00;9.20;;;;;;;28.69;35.59;98624.84;5114803;28;20036;-93
2022/06/23 08:45:24;;;;;;;13.45;9.13;;;;;;;28.68;35.47;98623.13;5113642;28;20044;-92
2022/06/23 08:47:58;;;;;;;12.50;9.10;;;;;;;28.64;36.51;98629.94;5112591;28;20040;-94
2022/06/23 08:50:43;;;;;;;14.65;10.75;;;;;;;28.97;36.02;98616.47;5114414;28;20040;-92
2022/06/23 08:53:28;;;;;;;10.52;8.57;;;;;;;28.88;35.84;98601.88;5113265;28;20055;-96
2022/06/23 08:59:09;;;;;;;21.98;15.07;;;;;;;29.03;36.28;98602.13;5074797;28;20052;-93
2022/06/23 09:01:45;;;;;;;9.73;7.80;;;;;;;29.31;35.35;98596.47;5105143;28;20097;-93
2022/06/23 09:04:24;;;;;;;9.43;8.02;;;;;;;29.34;36.26;98596.13;5113908;28;20048;-95
2022/06/23 09:07:42;;;;;;;10.25;7.93;;;;;;;29.19;36.08;98594.03;5110989;28;20036;-95
2022/06/23 09:10:52;;;;;;;7.85;6.97;;;;;;;29.93;35.42;98615.31;5117204;28;20040;-96
2022/06/23 09:13:40;;;;;;;13.52;9.57;;;;;;;30.31;33.89;98586.41;5056963;28;20049;-95
2022/06/23 09:21:17;;;;;;;10.00;8.27;;;;;;;31.22;32.66;98612.69;5031887;28;20049;-93
2022/06/23 09:24:33;;;;;;;10.52;8.02;;;;;;;30.58;33.81;98596.19;5013825;28;20046;-93
2022/06/23 09:27:34;;;;;;;9.95;7.57;;;;;;;30.16;33.80;98582.63;5003524;28;20667;-95
2022/06/23 09:30:14;;;;;;;15.63;8.65;;;;;;;29.22;35.49;98585.47;4998205;28;20166;-93
2022/06/23 09:33:13;;;;;;;9.23;7.72;;;;;;;28.91;36.22;98592.47;4996155;28;20053;-93
2022/06/23 09:36:10;;;;;;;12.45;8.35;;;;;;;28.94;37.38;98592.16;4990592;28;20043;-93
2022/06/23 09:42:44;;;;;;;11.52;8.10;;;;;;;29.59;34.98;98625.31;4995028;28;20600;-96
2022/06/23 09:45:48;;;;;;;10.45;7.95;;;;;;;29.59;35.35;98608.88;4940893;29;20047;-95
2022/06/23 09:48:45;;;;;;;10.18;7.50;;;;;;;29.68;35.31;98602.41;4960474;28;20128;-94
2022/06/23 09:51:44;;;;;;;12.77;7.90;;;;;;;29.40;36.03;98647.50;5017048;28;20158;-94
2022/06/23 09:55:00;;;;;;;11.02;8.27;;;;;;;30.08;35.43;98643.81;5016330;28;20108;-94
2022/06/23 09:58:06;;;;;;;9.98;7.72;;;;;;;30.43;34.76;98615.22;4944839;29;20060;-92
2022/06/23 10:00:52;;;;;;;12.60;8.23;;;;;;;29.99;34.95;98626.47;4957248;29;20523;-94
2022/06/23 10:03:41;;;;;;;12.40;7.97;;;;;;;30.00;35.21;98610.91;4957577;29;20122;-94
2022/06/23 10:06:29;;;;;;;11.82;8.18;;;;;;;29.85;35.84;98632.63;4938598;29;20157;-96
2022/06/23 10:09:04;;;;;;;15.65;8.25;;;;;;;30.07;35.64;98612.78;4957888;29;20179;-95
2022/06/23 10:11:53;;;;;;;10.13;7.95;;;;;;;30.00;35.94;98619.13;4957329;29;20086;-94
2022/06/23 10:14:37;;;;;;;11.15;7.75;;;;;;;30.32;35.38;98625.69;4958038;29;20054;-94
2022/06/23 10:17:39;;;;;;;12.00;8.07;;;;;;;30.66;34.09;98623.59;4993058;28;20500;-94
2022/06/23 10:20:28;;;;;;;12.73;7.63;;;;;;;31.40;33.43;98639.91;4997601;28;20043;-94
2022/06/23 10:23:34;;;;;;;9.95;7.88;;;;;;;31.61;32.48;98627.50;5023645;28;20489;-95
2022/06/23 10:26:36;;;;;;;12.60;8.10;;;;;;;31.31;33.08;98630.84;5013522;28;20057;-94
2022/06/23 10:29:47;;;;;;;11.05;7.43;;;;;;;31.16;33.59;98642.75;5011114;28;20042;-93
2022/06/23 10:32:38;;;;;;;10.23;7.32;;;;;;;31.37;33.13;98632.03;5018047;28;20045;-94
2022/06/23 10:35:30;;;;;;;12.38;7.85;;;;;;;31.31;32.58;98628.09;5093511;28;20489;-93
2022/06/23 10:38:22;;;;;;;8.52;7.20;;;;;;;31.28;33.74;98635.84;5098422;28;20040;-94
2022/06/23 10:41:09;;;;;;;17.88;8.02;;;;;;;31.24;33.56;98660.06;5097002;28;20048;-95
2022/06/23 10:44:15;;;;;;;10.23;7.25;;;;;;;31.29;33.66;98638.44;5097630;28;20389;-94
2022/06/23 10:46:58;;;;;;;8.70;7.15;;;;;;;31.40;32.97;98648.16;5082182;28;20110;-94
2022/06/23 10:49:52;;;;;;;14.85;7.07;;;;;;;31.00;33.39;98655.50;5099328;28;20575;-94
2022/06/23 10:52:40;;;;;;;10.27;6.88;;;;;;;30.75;32.98;98660.13;5084542;28;20044;-94
2022/06/23 10:55:43;;;;;;;9.52;7.30;;;;;;;30.71;34.01;98654.16;5076558;28;20075;-94
2022/06/23 10:58:28;;;;;;;15.15;7.38;;;;;;;30.61;34.27;98658.94;5034228;28;20136;-94
2022/06/23 11:01:05;;;;;;;9.13;6.68;;;;;;;30.49;34.64;98643.84;5042808;28;20072;-94
2022/06/23 11:04:05;;;;;;;10.25;6.88;;;;;;;30.84;35.60;98670.09;5037182;28;20210;-95
2022/06/23 11:06:50;;;;;;;11.65;6.85;;;;;;;30.87;34.85;98669.75;4993770;28;20046;-94
2022/06/23 11:09:45;;;;;;;9.32;6.68;;;;;;;30.65;35.92;98667.72;5030863;28;20048;-91
2022/06/23 11:12:29;;;;;;;11.73;7.20;;;;;;;30.35;35.98;98652.78;5024432;28;20049;-91
2022/06/23 11:15:12;;;;;;;8.68;6.60;;;;;;;30.31;36.75;98649.50;5035756;28;20048;-94
2022/06/23 11:18:07;;;;;;;9.93;6.55;;;;;;;29.96;36.90;98635.03;5027511;28;20085;-96
2022/06/23 11:20:43;;;;;;;11.23;7.22;;;;;;;29.84;36.85;98629.03;5042415;28;20049;-94
2022/06/23 11:23:25;;;;;;;11.27;7.10;;;;;;;29.88;37.18;98638.66;5042171;28;20514;-93
2022/06/23 11:26:00;;;;;;;10.88;6.82;;;;;;;29.76;38.10;98628.16;5043749;28;20037;-94
2022/06/23 11:28:42;;;;;;;12.70;7.57;;;;;;;29.20;39.69;98647.75;5037123;28;20121;-90
2022/06/23 11:31:36;;;;;;;11.55;6.95;;;;;;;29.01;40.79;98612.38;5026696;28;20030;-94
2022/06/23 11:34:22;;;;;;;10.38;7.35;;;;;;;28.93;41.18;98635.09;5076707;28;20420;-92
2022/06/23 11:37:06;;;;;;;13.68;7.30;;;;;;;28.95;41.93;98607.56;5095429;28;20169;-93
2022/06/23 11:40:04;;;;;;;11.70;7.35;;;;;;;29.07;41.33;98607.09;5094809;28;20131;-92
2022/06/23 11:42:54;;;;;;;10.80;7.30;;;;;;;28.95;42.03;98621.25;5090506;28;20072;-92
2022/06/23 11:45:38;;;;;;;9.27;7.22;;;;;;;29.05;42.33;98616.50;5084752;28;20053;-93
2022/06/23 11:48:41;;;;;;;13.93;7.50;;;;;;;29.44;41.41;98600.44;5095074;28;20044;-95
2022/06/23 11:51:19;;;;;;;12.20;7.22;;;;;;;29.80;40.88;98571.97;5090801;28;20039;-95
2022/06/23 11:54:05;;;;;;;13.25;7.25;;;;;;;29.78;40.01;98574.03;5095435;28;20076;-93
2022/06/23 11:56:47;;;;;;;13.52;7.38;;;;;;;30.05;40.19;98587.41;5096163;28;20144;-94
2022/06/23 11:59:33;;;;;;;9.93;7.00;;;;;;;30.30;40.17;98615.75;5094926;28;20048;-95
2022/06/23 12:02:02;;;;;;;12.55;6.88;;;;;;;30.62;39.32;98624.13;5096357;28;20047;-95
2022/06/23 12:04:52;;;;;;;9.05;6.90;;;;;;;30.66;39.23;98600.78;5096224;28;20048;-94
2022/06/23 12:07:34;;;;;;;11.75;6.93;;;;;;;30.82;39.05;98627.38;5095649;28;20091;-91
2022/06/23 12:10:15;;;;;;;9.73;7.03;;;;;;;30.70;38.90;98615.88;5095683;28;20085;-95
2022/06/23 12:12:50;;;;;;;12.93;7.22;;;;;;;30.64;39.32;98635.78;5097374;28;20596;-93
2022/06/23 12:15:20;;;;;;;11.18;6.80;;;;;;;30.46;39.75;98620.38;5096484;28;20042;-95
2022/06/23 12:17:52;;;;;;;12.75;7.85;;;;;;;30.30;40.93;98610.25;5095789;28;20047;-94
2022/06/23 12:20:27;;;;;;;15.55;8.07;;;;;;;30.20;40.09;98620.50;5099976;28;20040;-94
2022/06/23 12:23:01;;;;;;;12.35;7.40;;;;;;;30.04;40.63;98593.09;5092526;28;20086;-94
2022/06/23 12:25:35;;;;;;;11.07;7.30;;;;;;;29.85;40.79;98559.47;5099093;28;20047;-92
2022/06/23 12:28:21;;;;;;;11.18;7.60;;;;;;;29.16;42.29;98579.81;5099987;28;20370;-94
2022/06/23 12:30:54;;;;;;;13.93;7.28;;;;;;;29.00;43.66;98597.84;5100582;28;20047;-94
2022/06/23 12:33:30;;;;;;;14.77;7.10;;;;;;;28.83;44.17;98574.13;5101473;28;20105;-92
2022/06/23 12:36:06;;;;;;;12.70;7.70;;;;;;;28.96;46.35;98609.28;5098516;28;20047;-92
2022/06/23 12:38:40;;;;;;;16.58;7.50;;;;;;;28.91;46.88;98609.78;5098200;28;20036;-94
2022/06/23 12:41:18;;;;;;;16.63;7.55;;;;;;;28.58;47.14;98603.22;5100473;28;20092;-94
2022/06/23 12:43:50;;;;;;;13.20;7.53;;;;;;;28.55;47.55;98626.28;5099774;28;20501;-94
2022/06/23 12:46:30;;;;;;;12.13;7.70;;;;;;;28.43;48.32;98606.53;5098057;28;20072;-93
2022/06/23 12:49:24;;;;;;;14.85;7.78;;;;;;;28.60;48.38;98612.13;5097848;28;20535;-96
2022/06/23 12:52:23;;;;;;;14.07;7.93;;;;;;;28.60;46.77;98625.81;5081552;28;20044;-94
2022/06/23 12:55:24;;;;;;;10.35;7.85;;;;;;;28.20;46.85;98595.22;5096588;28;20040;-94
2022/06/23 12:58:28;;;;;;;12.48;8.10;;;;;;;28.03;48.21;98598.81;5078007;28;20045;-93
2022/06/23 13:01:19;;;;;;;14.70;8.27;;;;;;;28.32;48.51;98635.97;5096430;28;20135;-95
2022/06/23 13:04:16;;;;;;;15.32;7.70;;;;;;;28.29;46.99;98608.97;5104725;28;20052;-95